Time;durP1;ratioP1;P1;durP2;ratioP2;P2;SDS_P1;SDS_P2;PMS_P1;PMS_P2;Temp;Humidity;BMP_temperature;BMP_pressure;BME280_temperature;BME280_humidity;BME280_pressure;Samples;Min_cycle;Max_cycle;Signal;HPM_P1;HPM_P2
2023/06/05 00:00:51;;;;;;;12.85;5.50;;;;;;;9.92;100.00;101870.13;4995862;28;20228;-76
2023/06/05 00:03:17;;;;;;;12.57;6.23;;;;;;;9.97;100.00;101872.41;4986835;28;20564;-76
2023/06/05 00:05:43;;;;;;;14.50;6.20;;;;;;;9.92;100.00;101864.78;4974092;28;20678;-76
2023/06/05 00:08:08;;;;;;;10.53;4.80;;;;;;;9.89;100.00;101857.91;4988321;28;20061;-76
2023/06/05 00:10:34;;;;;;;9.97;5.70;;;;;;;9.88;100.00;101858.03;4995831;28;20280;-76
2023/06/05 00:12:59;;;;;;;12.67;5.70;;;;;;;9.87;100.00;101861.69;4990017;28;20036;-76
2023/06/05 00:15:25;;;;;;;11.27;5.53;;;;;;;9.83;100.00;101862.91;4985121;28;20034;-76
2023/06/05 00:17:50;;;;;;;11.43;5.80;;;;;;;9.83;100.00;101865.56;4972960;28;20038;-76
2023/06/05 00:20:15;;;;;;;17.93;6.00;;;;;;;9.82;100.00;101869.22;4970792;28;20054;-76
2023/06/05 00:22:44;;;;;;;11.20;5.47;;;;;;;9.87;100.00;101867.00;4970762;28;20030;-76
2023/06/05 00:25:10;;;;;;;12.63;5.20;;;;;;;9.80;100.00;101864.00;4970503;28;20465;-76
2023/06/05 00:27:35;;;;;;;13.13;6.32;;;;;;;9.84;100.00;101873.44;4997104;28;20033;-76
2023/06/05 00:30:01;;;;;;;9.57;5.60;;;;;;;9.82;100.00;101877.22;4991588;28;20057;-76
2023/06/05 00:32:26;;;;;;;12.02;5.85;;;;;;;9.80;100.00;101879.19;4976002;28;20388;-76
2023/06/05 00:34:51;;;;;;;10.40;5.53;;;;;;;9.74;100.00;101867.22;4986345;28;20037;-76
2023/06/05 00:37:17;;;;;;;23.03;7.03;;;;;;;9.66;100.00;101857.19;4977824;28;20029;-76
2023/06/05 00:39:42;;;;;;;11.13;5.97;;;;;;;9.68;100.00;101863.22;4995543;28;20357;-76
2023/06/05 00:42:11;;;;;;;14.00;5.90;;;;;;;9.63;100.00;101865.44;4978227;28;20117;-76
2023/06/05 00:44:38;;;;;;;9.77;5.45;;;;;;;9.58;100.00;101858.81;4986227;28;20125;-76
2023/06/05 00:47:05;;;;;;;12.63;6.90;;;;;;;9.55;100.00;101867.91;4971657;28;20448;-76
2023/06/05 00:49:30;;;;;;;7.55;5.55;;;;;;;9.55;100.00;101862.56;4948761;28;20035;-76
2023/06/05 00:51:57;;;;;;;13.83;6.30;;;;;;;9.53;100.00;101859.19;4953261;28;20030;-76
2023/06/05 00:54:22;;;;;;;;;;;;;;;9.48;100.00;101850.72;4968681;28;20808;-76
2023/06/05 00:56:49;;;;;;;10.93;5.38;;;;;;;9.47;100.00;101865.03;4969825;28;19917;-76
2023/06/05 00:59:17;;;;;;;10.18;5.60;;;;;;;9.42;100.00;101868.09;4970260;28;20038;-76
2023/06/05 01:01:43;;;;;;;9.98;5.97;;;;;;;9.41;100.00;101868.19;4977308;28;20026;-76
2023/06/05 01:04:09;;;;;;;9.27;6.22;;;;;;;9.39;100.00;101870.16;4978337;28;20480;-76
2023/06/05 01:06:38;;;;;;;12.13;7.80;;;;;;;9.50;100.00;101883.44;4982290;28;20036;-76
2023/06/05 01:09:05;;;;;;;9.27;6.10;;;;;;;9.47;100.00;101875.69;4987135;28;20046;-76
2023/06/05 01:11:56;;;;;;;12.95;6.55;;;;;;;9.45;100.00;101878.47;4971758;28;20161;-77
2023/06/05 01:14:23;;;;;;;13.13;6.35;;;;;;;9.38;100.00;101871.13;4986425;28;20471;-77
2023/06/05 01:16:53;;;;;;;10.10;6.18;;;;;;;9.34;100.00;101864.34;4977339;28;20447;-76
2023/06/05 01:19:20;;;;;;;12.48;6.45;;;;;;;9.28;100.00;101860.38;4974433;28;20443;-76
2023/06/05 01:21:46;;;;;;;11.23;6.60;;;;;;;9.22;100.00;101861.72;4969139;28;20572;-76
2023/06/05 01:24:13;;;;;;;10.00;6.65;;;;;;;9.20;100.00;101863.69;4974699;28;20124;-76
2023/06/05 01:27:10;;;;;;;12.27;7.30;;;;;;;9.22;100.00;101863.56;4974520;28;20113;-76
2023/06/05 01:30:13;;;;;;;14.68;5.82;;;;;;;9.09;100.00;101845.06;4983062;28;20034;-77
2023/06/05 01:33:05;;;;;;;10.32;7.03;;;;;;;9.06;100.00;101850.63;4980987;28;20042;-76
2023/06/05 01:35:33;;;;;;;13.85;7.47;;;;;;;9.05;100.00;101859.63;4964205;28;20061;-77
2023/06/05 01:38:02;;;;;;;15.55;7.35;;;;;;;8.96;100.00;101850.53;4972210;28;20503;-77
2023/06/05 01:40:30;;;;;;;18.67;7.38;;;;;;;8.96;100.00;101852.38;4952662;28;20436;-76
2023/06/05 01:42:56;;;;;;;12.68;5.93;;;;;;;8.88;100.00;101848.50;4991130;28;20739;-76
2023/06/05 01:45:22;;;;;;;;;;;;;;;8.82;100.00;101841.00;4977282;28;20318;-76
2023/06/05 01:47:48;;;;;;;;;;;;;;;8.81;100.00;101842.00;4995766;28;19913;-76
2023/06/05 01:50:14;;;;;;;12.73;7.10;;;;;;;8.75;100.00;101836.31;4961625;28;19917;-76
2023/06/05 01:52:41;;;;;;;10.25;6.53;;;;;;;8.70;100.00;101825.19;4978018;28;20030;-77
2023/06/05 01:55:15;;;;;;;8.57;5.63;;;;;;;8.69;100.00;101826.19;4981691;28;20081;-76
2023/06/05 01:57:41;;;;;;;10.10;5.93;;;;;;;8.63;100.00;101811.53;4987963;28;20033;-76
2023/06/05 02:00:12;;;;;;;11.38;6.38;;;;;;;8.60;100.00;101803.81;4974814;28;20017;-77
2023/06/05 02:02:42;;;;;;;14.00;6.30;;;;;;;8.60;100.00;101817.09;4994751;28;20034;-76
2023/06/05 02:05:09;;;;;;;11.95;6.50;;;;;;;8.57;100.00;101823.53;4974163;28;20044;-76
2023/06/05 02:07:38;;;;;;;14.70;6.85;;;;;;;8.52;100.00;101824.84;4978626;28;20073;-76
2023/06/05 02:10:07;;;;;;;19.88;7.63;;;;;;;8.45;100.00;101813.84;4955958;28;20022;-76
2023/06/05 02:12:32;;;;;;;12.07;6.35;;;;;;;8.40;100.00;101811.53;4994348;28;20124;-76
2023/06/05 02:15:01;;;;;;;10.23;5.57;;;;;;;8.42;100.00;101819.41;4975065;28;20117;-76
2023/06/05 02:17:29;;;;;;;11.02;6.60;;;;;;;8.40;100.00;101811.53;4972824;28;20026;-76
2023/06/05 02:19:55;;;;;;;10.80;6.22;;;;;;;8.35;100.00;101805.72;4972998;28;20484;-76
2023/06/05 02:22:23;;;;;;;11.73;6.53;;;;;;;8.34;100.00;101800.53;4997754;28;20025;-76
2023/06/05 02:24:50;;;;;;;15.63;8.50;;;;;;;8.32;100.00;101803.31;4975435;28;20033;-76
2023/06/05 02:27:16;;;;;;;14.25;6.82;;;;;;;8.34;100.00;101813.84;4996325;28;20101;-76
2023/06/05 02:29:41;;;;;;;13.88;7.63;;;;;;;8.28;100.00;101806.34;4951098;28;20019;-76
2023/06/05 02:32:07;;;;;;;8.77;5.63;;;;;;;8.24;100.00;101801.28;4973803;28;20022;-76
2023/06/05 02:34:32;;;;;;;15.30;6.73;;;;;;;8.24;100.00;101800.41;4989807;28;20065;-76
2023/06/05 02:36:59;;;;;;;13.97;6.70;;;;;;;8.25;100.00;101792.31;4989853;28;20309;-76
2023/06/05 02:39:25;;;;;;;11.55;6.93;;;;;;;8.29;100.00;101808.88;4972381;28;20064;-76
2023/06/05 02:41:51;;;;;;;10.82;6.20;;;;;;;8.27;100.00;101805.50;4973389;28;20038;-76
2023/06/05 02:44:16;;;;;;;15.43;7.55;;;;;;;8.34;100.00;101803.19;4971774;28;20949;-76
2023/06/05 02:46:42;;;;;;;15.43;7.47;;;;;;;8.28;100.00;101806.34;4972341;28;20044;-76
2023/06/05 02:49:07;;;;;;;16.93;7.10;;;;;;;8.28;100.00;101807.19;4996342;28;20180;-76
2023/06/05 02:51:33;;;;;;;11.67;6.97;;;;;;;8.22;100.00;101797.03;4971946;28;20372;-76
2023/06/05 02:53:58;;;;;;;11.70;6.68;;;;;;;8.26;100.00;101806.44;4988294;28;20108;-76
2023/06/05 02:56:26;;;;;;;14.90;7.80;;;;;;;8.21;100.00;101805.97;4977836;28;20411;-76
2023/06/05 02:58:51;;;;;;;16.08;7.13;;;;;;;8.19;100.00;101799.91;4952206;28;20298;-76
2023/06/05 03:01:17;;;;;;;13.25;6.75;;;;;;;8.18;100.00;101798.25;4972029;28;20031;-76
2023/06/05 03:03:48;;;;;;;15.45;7.18;;;;;;;8.20;100.00;101806.94;4966696;28;20035;-76
2023/06/05 03:06:17;;;;;;;12.55;7.00;;;;;;;8.20;100.00;101806.94;4994323;28;20031;-76
2023/06/05 03:08:45;;;;;;;12.65;7.28;;;;;;;8.22;100.00;101810.34;4969820;28;20019;-76
2023/06/05 03:11:15;;;;;;;16.00;7.85;;;;;;;8.26;100.00;101814.44;4972447;28;20038;-76
2023/06/05 03:13:41;;;;;;;13.43;7.80;;;;;;;8.32;100.00;101823.75;4965648;28;20089;-76
2023/06/05 03:16:07;;;;;;;13.73;8.00;;;;;;;8.35;100.00;101829.66;4971122;28;20392;-76
2023/06/05 03:18:35;;;;;;;16.38;8.00;;;;;;;8.37;100.00;101824.22;4981849;28;20030;-76
2023/06/05 03:21:02;;;;;;;15.60;8.90;;;;;;;8.42;100.00;101840.72;4972715;28;20394;-76
2023/06/05 03:23:28;;;;;;;14.68;8.75;;;;;;;8.41;100.00;101831.03;4982005;28;20046;-76
2023/06/05 03:25:56;;;;;;;13.95;7.10;;;;;;;8.46;100.00;101828.84;4977701;28;20034;-76
2023/06/05 03:28:23;;;;;;;20.50;8.60;;;;;;;8.49;100.00;101825.09;4971518;28;20049;-76
2023/06/05 03:30:49;;;;;;;18.73;9.07;;;;;;;8.56;100.00;101834.28;4993710;28;20391;-76
2023/06/05 03:33:17;;;;;;;22.67;9.55;;;;;;;8.59;100.00;101831.38;4970929;28;20379;-76
2023/06/05 03:35:46;;;;;;;27.17;11.20;;;;;;;8.64;100.00;101842.53;4970675;28;20030;-75
2023/06/05 03:38:12;;;;;;;14.93;8.30;;;;;;;8.62;100.00;101847.97;4994586;28;20479;-76
2023/06/05 03:40:41;;;;;;;17.33;9.60;;;;;;;8.67;100.00;101847.59;4997580;28;20030;-76
2023/06/05 03:43:09;;;;;;;14.95;7.55;;;;;;;8.68;100.00;101846.59;4972061;28;20018;-76
2023/06/05 03:45:36;;;;;;;;;;;;;;;8.74;100.00;101837.28;4987685;28;20137;-76
2023/06/05 03:48:02;;;;;;;16.15;8.38;;;;;;;8.79;100.00;101849.25;4953388;28;19960;-76
2023/06/05 03:50:33;;;;;;;15.43;9.70;;;;;;;8.87;100.00;101851.28;4980616;28;20415;-76
2023/06/05 03:53:02;;;;;;;18.27;9.50;;;;;;;9.01;100.00;101861.69;4967392;28;20041;-76
2023/06/05 03:55:41;;;;;;;20.65;9.13;;;;;;;9.01;100.00;101869.69;4992641;28;20512;-76
2023/06/05 03:58:13;;;;;;;20.27;10.25;;;;;;;9.13;100.00;101862.50;4978157;28;20068;-76
2023/06/05 04:00:40;;;;;;;24.20;10.48;;;;;;;9.25;100.00;101877.47;5001229;28;20092;-76
2023/06/05 04:03:05;;;;;;;19.35;11.70;;;;;;;9.42;100.00;101889.41;4971150;28;20055;-76
2023/06/05 04:05:31;;;;;;;21.07;10.53;;;;;;;9.53;100.00;101885.88;4964641;28;20524;-76
2023/06/05 04:07:56;;;;;;;21.42;9.65;;;;;;;9.65;100.00;101889.31;4953350;28;20041;-76
2023/06/05 04:10:22;;;;;;;28.83;12.37;;;;;;;9.74;100.00;101891.22;4970760;28;20034;-76
2023/06/05 04:12:47;;;;;;;32.47;12.33;;;;;;;9.83;100.00;101898.44;4991268;28;20078;-76
2023/06/05 04:15:14;;;;;;;31.15;12.02;;;;;;;9.88;100.00;101892.69;4986773;28;20027;-76
2023/06/05 04:17:41;;;;;;;27.20;12.07;;;;;;;9.96;100.00;101889.41;4985680;28;20037;-76
2023/06/05 04:20:13;;;;;;;31.00;12.63;;;;;;;10.08;100.00;101896.34;4986840;28;20506;-76
2023/06/05 04:22:40;;;;;;;127.40;17.88;;;;;;;10.05;100.00;101885.94;4986562;28;20510;-76
2023/06/05 04:25:06;;;;;;;;;;;;;;;10.15;100.00;101902.84;4988122;28;20459;-76
2023/06/05 04:27:31;;;;;;;;;;;;;;;10.20;100.00;101897.97;4949058;28;19918;-76
2023/06/05 04:29:57;;;;;;;29.10;12.17;;;;;;;10.22;100.00;101901.34;4975659;28;20486;-76
2023/06/05 04:32:22;;;;;;;44.80;13.50;;;;;;;10.27;100.00;101895.59;4997477;28;20030;-76
2023/06/05 04:34:48;;;;;;;55.70;14.52;;;;;;;10.31;100.00;101902.41;5000384;28;20060;-76
2023/06/05 04:37:13;;;;;;;67.97;11.93;;;;;;;10.37;100.00;101895.69;4964718;28;20094;-76
2023/06/05 04:39:39;;;;;;;28.23;11.63;;;;;;;10.40;100.00;101896.28;4961792;28;20232;-76
2023/06/05 04:42:04;;;;;;;60.93;12.83;;;;;;;10.35;100.00;101887.84;4976980;28;20030;-75
2023/06/05 04:44:31;;;;;;;79.60;13.48;;;;;;;10.30;100.00;101884.69;4969659;28;20034;-76
2023/06/05 04:46:57;;;;;;;26.20;12.68;;;;;;;10.51;100.00;101903.34;4946787;28;20030;-76
2023/06/05 04:49:23;;;;;;;25.55;11.00;;;;;;;10.68;100.00;101904.56;4988176;28;20088;-75
2023/06/05 04:51:48;;;;;;;19.38;10.30;;;;;;;10.74;100.00;101895.97;4971135;28;20073;-76
2023/06/05 04:54:14;;;;;;;35.70;11.50;;;;;;;10.85;100.00;101890.53;4948334;28;20023;-76
2023/06/05 04:56:40;;;;;;;29.80;12.02;;;;;;;10.71;100.00;101883.75;4972057;28;20030;-76
2023/06/05 04:59:06;;;;;;;38.70;11.90;;;;;;;10.74;100.00;101886.13;4985364;28;20037;-76
2023/06/05 05:01:32;;;;;;;36.00;12.00;;;;;;;10.82;100.00;101885.47;4999111;28;20881;-76
2023/06/05 05:03:59;;;;;;;43.25;11.45;;;;;;;10.80;100.00;101884.78;4980846;28;20394;-76
2023/06/05 05:06:25;;;;;;;30.77;11.13;;;;;;;10.82;100.00;101885.47;4975302;28;20049;-76
2023/06/05 05:08:50;;;;;;;30.17;11.90;;;;;;;10.90;100.00;101888.28;4982529;28;20030;-76
2023/06/05 05:11:17;;;;;;;28.30;11.52;;;;;;;10.96;100.00;101882.41;4964136;28;20046;-75
2023/06/05 05:13:43;;;;;;;;;;;;;;;10.99;100.00;101883.97;4964378;28;20057;-75
2023/06/05 05:16:08;;;;;;;;;;;;;;;11.18;100.00;101889.34;4964576;28;19940;-75
2023/06/05 05:18:36;;;;;;;36.60;12.30;;;;;;;11.17;100.00;101879.66;4948269;28;19910;-76
2023/06/05 05:21:02;;;;;;;27.10;10.98;;;;;;;11.22;100.00;101876.56;4972919;28;20116;-75
2023/06/05 05:23:28;;;;;;;27.77;10.10;;;;;;;11.40;100.00;101882.91;4972056;28;20027;-76
2023/06/05 05:25:54;;;;;;;20.40;10.68;;;;;;;11.56;100.00;101884.16;4962207;28;20053;-76
2023/06/05 05:28:19;;;;;;;18.95;9.50;;;;;;;11.65;100.00;101883.31;4948118;28;20018;-76
2023/06/05 05:30:45;;;;;;;21.48;9.63;;;;;;;11.56;100.00;101870.78;4964202;28;20026;-76
2023/06/05 05:33:10;;;;;;;24.65;10.05;;;;;;;11.61;100.00;101861.38;4990508;28;20032;-76
2023/06/05 05:35:36;;;;;;;15.33;9.00;;;;;;;11.74;100.00;101871.75;4994288;28;20366;-76
2023/06/05 05:38:01;;;;;;;19.33;9.67;;;;;;;11.92;100.00;101869.22;4959375;28;20951;-76
2023/06/05 05:40:26;;;;;;;18.40;9.40;;;;;;;11.88;100.00;101856.28;4967068;28;20035;-76
2023/06/05 05:42:52;;;;;;;15.87;9.37;;;;;;;11.88;100.00;101849.09;4954762;28;20030;-76
2023/06/05 05:45:17;;;;;;;15.20;10.47;;;;;;;11.98;100.00;101851.75;4973129;28;20035;-76
2023/06/05 05:47:43;;;;;;;22.17;10.57;;;;;;;12.15;100.00;101851.00;4988824;28;20310;-76
2023/06/05 05:50:08;;;;;;;25.53;10.60;;;;;;;12.30;100.00;101853.22;4991016;28;20038;-76
2023/06/05 05:52:34;;;;;;;15.32;8.20;;;;;;;12.44;100.00;101852.72;5005962;28;20040;-76
2023/06/05 05:54:59;;;;;;;20.77;9.17;;;;;;;12.39;100.00;101834.41;4986021;28;20062;-76
2023/06/05 05:57:25;;;;;;;16.03;9.57;;;;;;;12.47;100.00;101828.31;4975291;28;20443;-76
2023/06/05 05:59:51;;;;;;;25.92;10.38;;;;;;;12.37;100.00;101811.47;4975927;28;20132;-76
2023/06/05 06:02:16;;;;;;;17.40;8.45;;;;;;;12.65;100.00;101828.38;4990527;28;20139;-76
2023/06/05 06:04:43;;;;;;;12.30;8.87;;;;;;;12.82;100.00;101818.66;4994704;28;20034;-76
2023/06/05 06:07:09;;;;;;;16.83;8.85;;;;;;;12.89;100.00;101809.03;5002737;28;20276;-74
2023/06/05 06:09:35;;;;;;;17.35;9.80;;;;;;;13.00;100.00;101797.25;4988906;28;20112;-74
2023/06/05 06:12:05;;;;;;;15.95;8.38;;;;;;;13.18;100.00;101787.38;4989454;28;20082;-73
2023/06/05 06:14:32;;;;;;;23.63;9.73;;;;;;;13.30;100.00;101782.66;4994199;28;20089;-75
2023/06/05 06:16:57;;;;;;;;;;;;;;;13.39;100.00;101778.16;4996593;28;20037;-76
2023/06/05 06:19:23;;;;;;;;;;;;;;;13.45;100.00;101759.59;4996308;28;19918;-76
2023/06/05 06:21:51;;;;;;;15.25;8.88;;;;;;;13.55;100.00;101750.63;4973127;28;20355;-76
2023/06/05 06:24:19;;;;;;;15.23;8.77;;;;;;;13.40;100.00;101748.50;4972206;28;20151;-76
2023/06/05 06:26:46;;;;;;;19.02;9.77;;;;;;;13.30;100.00;101745.09;4972180;28;20026;-76
2023/06/05 06:29:14;;;;;;;23.13;11.10;;;;;;;13.57;100.00;101768.25;4973325;28;20026;-76
2023/06/05 06:31:40;;;;;;;16.33;9.57;;;;;;;13.52;100.00;101760.66;4988571;28;20025;-76
2023/06/05 06:34:05;;;;;;;18.05;10.18;;;;;;;13.56;100.00;101744.28;4973001;28;20034;-76
2023/06/05 06:36:30;;;;;;;19.53;9.47;;;;;;;13.76;100.00;101764.50;4992417;28;20459;-75
2023/06/05 06:38:56;;;;;;;13.83;9.10;;;;;;;13.81;100.00;101780.13;4984916;28;20578;-76
2023/06/05 06:41:22;;;;;;;16.10;9.03;;;;;;;14.41;100.00;101784.63;4962103;28;20072;-74
2023/06/05 06:43:47;;;;;;;17.25;9.30;;;;;;;14.80;100.00;101741.06;4966569;28;20035;-74
2023/06/05 06:46:13;;;;;;;15.23;9.15;;;;;;;14.96;100.00;101704.31;4996411;28;20113;-74
2023/06/05 06:48:38;;;;;;;15.77;9.27;;;;;;;14.91;100.00;101641.28;5000146;28;20129;-73
2023/06/05 06:51:04;;;;;;;18.53;10.70;;;;;;;14.86;100.00;101616.75;4977747;28;20033;-74
2023/06/05 06:53:29;;;;;;;15.27;9.63;;;;;;;15.17;100.00;101641.06;4966106;28;20026;-74
2023/06/05 06:55:55;;;;;;;10.57;7.23;;;;;;;15.73;100.00;101603.41;4967703;28;20578;-74
2023/06/05 06:58:20;;;;;;;12.35;8.55;;;;;;;16.74;100.00;101566.50;4978504;28;20045;-73
2023/06/05 07:00:47;;;;;;;16.03;6.80;;;;;;;18.00;100.00;101473.66;4950644;28;20026;-74
2023/06/05 07:03:12;;;;;;;13.02;7.10;;;;;;;18.63;100.00;101262.00;4972440;28;20121;-74
2023/06/05 07:05:38;;;;;;;12.63;7.20;;;;;;;18.52;100.00;101118.25;4994967;28;20546;-75
2023/06/05 07:08:03;;;;;;;14.73;7.10;;;;;;;19.07;100.00;101063.13;4977133;28;20100;-75
2023/06/05 07:10:29;;;;;;;12.33;5.83;;;;;;;19.85;100.00;100962.03;4997273;28;20033;-75
2023/06/05 07:12:54;;;;;;;10.63;6.82;;;;;;;20.03;100.00;100829.34;4991469;28;20058;-75
2023/06/05 07:15:20;;;;;;;8.10;5.47;;;;;;;20.07;100.00;100811.59;4949866;28;20511;-74
2023/06/05 07:17:46;;;;;;;;;;;;;;;20.44;100.00;100722.13;4969290;28;20043;-75
2023/06/05 07:20:12;;;;;;;7.65;6.30;;;;;;;20.59;100.00;100752.41;4971493;28;19917;-74
2023/06/05 07:22:41;;;;;;;8.50;6.70;;;;;;;20.61;100.00;100603.00;4991594;28;20097;-74
2023/06/05 07:25:07;;;;;;;11.32;5.93;;;;;;;20.50;100.00;100737.47;4995196;28;20363;-75
2023/06/05 07:27:32;;;;;;;13.57;7.03;;;;;;;20.75;98.24;100690.44;4994590;28;20057;-74
2023/06/05 07:29:57;;;;;;;8.70;6.67;;;;;;;20.80;96.57;100704.13;4995814;28;20041;-75
2023/06/05 07:32:23;;;;;;;10.80;7.93;;;;;;;20.50;97.34;100761.88;4965355;28;20329;-75
2023/06/05 07:34:48;;;;;;;16.20;6.93;;;;;;;21.16;94.49;100789.19;4953177;28;20033;-74
2023/06/05 07:37:14;;;;;;;8.67;6.67;;;;;;;21.25;90.67;100652.06;4994862;28;20026;-75
2023/06/05 07:39:39;;;;;;;13.07;6.60;;;;;;;20.21;92.39;100693.00;4997630;28;20650;-74
2023/06/05 07:42:05;;;;;;;13.67;6.90;;;;;;;20.33;90.76;100660.53;5000573;28;20513;-74
2023/06/05 07:44:30;;;;;;;;;;;;;;;19.67;92.86;100752.31;4965795;28;20037;-75
2023/06/05 07:46:56;;;;;;;9.65;6.78;;;;;;;20.49;92.86;100909.38;4992675;28;19921;-74
2023/06/05 07:49:24;;;;;;;6.67;5.97;;;;;;;20.84;89.74;100803.00;5000532;28;20069;-74
2023/06/05 07:51:50;;;;;;;10.48;7.10;;;;;;;20.78;87.48;100726.06;4993579;28;20034;-75
2023/06/05 07:54:16;;;;;;;11.40;6.28;;;;;;;20.96;88.85;100914.34;4979702;28;20836;-75
2023/06/05 07:56:42;;;;;;;9.55;6.88;;;;;;;20.99;85.24;100686.72;4987899;28;20520;-74
2023/06/05 07:59:08;;;;;;;11.43;6.50;;;;;;;20.45;89.07;100962.41;4971963;28;20041;-75
2023/06/05 08:01:38;;;;;;;11.18;6.03;;;;;;;21.08;89.08;101088.94;4992057;28;20038;-75
2023/06/05 08:04:04;;;;;;;10.85;5.38;;;;;;;21.64;86.37;101013.75;4994764;28;20037;-74
2023/06/05 08:06:30;;;;;;;10.35;7.03;;;;;;;21.62;84.18;100888.19;4970514;28;20027;-74
2023/06/05 08:08:56;;;;;;;6.57;5.78;;;;;;;21.33;81.95;100680.72;4988835;28;20030;-75
2023/06/05 08:11:21;;;;;;;8.18;4.47;;;;;;;21.52;83.33;100898.78;4970437;28;20484;-74
2023/06/05 08:13:47;;;;;;;8.53;5.53;;;;;;;21.67;80.31;100717.97;4998701;28;20029;-75
2023/06/05 08:16:12;;;;;;;10.57;5.63;;;;;;;21.63;79.89;100729.53;4990033;28;20843;-75
2023/06/05 08:18:38;;;;;;;14.70;7.28;;;;;;;21.06;81.28;100749.03;4991586;28;20041;-74
2023/06/05 08:21:03;;;;;;;9.63;6.30;;;;;;;21.57;80.22;100822.88;4988309;28;20030;-74
2023/06/05 08:23:28;;;;;;;9.37;5.87;;;;;;;21.92;79.01;100831.06;4964311;28;20117;-74
2023/06/05 08:25:54;;;;;;;8.93;5.97;;;;;;;21.91;79.07;100824.81;4992255;28;20526;-75
2023/06/05 08:28:19;;;;;;;8.23;5.87;;;;;;;21.69;79.46;100848.16;4964700;28;20392;-74
2023/06/05 08:30:45;;;;;;;8.68;5.72;;;;;;;21.77;79.12;100869.53;4967216;28;20332;-74
2023/06/05 08:33:10;;;;;;;12.10;6.17;;;;;;;22.32;77.72;100863.81;4971210;28;20033;-75
2023/06/05 08:35:37;;;;;;;7.53;4.60;;;;;;;22.09;73.77;100526.69;4986519;28;20638;-75
2023/06/05 08:38:03;;;;;;;7.40;4.38;;;;;;;22.45;69.93;100286.13;4999679;28;20295;-74
2023/06/05 08:40:29;;;;;;;7.47;4.32;;;;;;;21.94;72.08;100470.19;4991028;28;20022;-75
2023/06/05 08:42:54;;;;;;;;;;;;;;;22.60;70.81;100522.16;4988262;28;20101;-75
2023/06/05 08:45:23;;;;;;;13.82;4.93;;;;;;;23.10;69.42;100542.25;4993647;28;19917;-75
2023/06/05 08:47:51;;;;;;;14.00;5.77;;;;;;;22.71;68.35;100366.16;4993468;28;20033;-74
2023/06/05 08:50:16;;;;;;;5.72;3.80;;;;;;;22.54;69.33;100544.91;4980948;28;20396;-75
2023/06/05 08:52:43;;;;;;;11.38;4.93;;;;;;;23.17;67.54;100480.28;4989489;28;20044;-75
2023/06/05 08:55:10;;;;;;;6.97;4.68;;;;;;;23.15;66.88;100464.16;4969508;28;20166;-74
2023/06/05 08:57:40;;;;;;;7.40;4.35;;;;;;;23.25;64.49;100203.94;4992090;28;20061;-74
2023/06/05 09:00:07;;;;;;;6.80;3.97;;;;;;;23.14;63.96;100209.31;4988767;28;20040;-74
2023/06/05 09:02:33;;;;;;;9.55;4.13;;;;;;;23.66;63.01;100286.03;4991807;28;20072;-74
2023/06/05 09:05:00;;;;;;;7.35;4.03;;;;;;;24.21;61.06;100257.53;4986253;28;20484;-74
2023/06/05 09:07:28;;;;;;;9.00;3.53;;;;;;;23.88;57.94;99834.28;4996240;28;20036;-75
2023/06/05 09:09:54;;;;;;;16.83;4.53;;;;;;;24.41;58.44;100093.91;4971568;28;20076;-74
2023/06/05 09:12:20;;;;;;;25.88;4.35;;;;;;;24.46;57.86;100038.53;4989584;28;20463;-75
2023/06/05 09:14:45;;;;;;;8.05;3.58;;;;;;;23.57;56.98;99787.91;4987722;28;20516;-75
2023/06/05 09:17:14;;;;;;;7.17;3.13;;;;;;;23.99;55.88;99838.63;4994922;28;20018;-74
2023/06/05 09:19:40;;;;;;;5.13;3.67;;;;;;;24.37;55.88;99948.25;4992268;28;20049;-75
2023/06/05 09:22:07;;;;;;;4.90;3.03;;;;;;;23.96;56.58;99937.31;4970735;28;20057;-74
2023/06/05 09:24:32;;;;;;;16.73;3.90;;;;;;;24.76;55.81;100149.66;4987235;28;20117;-75
2023/06/05 09:27:04;;;;;;;5.65;3.13;;;;;;;25.04;54.54;100060.13;4992251;28;20447;-75
2023/06/05 09:29:33;;;;;;;8.70;3.42;;;;;;;24.15;53.12;99625.94;4996463;28;20079;-74
2023/06/05 09:32:04;;;;;;;3.60;1.98;;;;;;;24.87;51.94;99718.38;4972269;28;20035;-75
2023/06/05 09:34:35;;;;;;;5.80;2.67;;;;;;;24.55;50.82;99510.34;4989360;28;20080;-75
2023/06/05 09:37:03;;;;;;;4.85;1.85;;;;;;;25.00;47.94;99310.94;4974526;28;20045;-76
2023/06/05 09:39:29;;;;;;;4.35;2.13;;;;;;;25.16;46.70;99210.50;4973023;28;20018;-75
2023/06/05 09:41:56;;;;;;;6.40;2.45;;;;;;;25.30;46.68;99331.56;4989426;28;20125;-75
2023/06/05 09:44:23;;;;;;;5.32;2.42;;;;;;;25.67;46.65;99516.59;4996372;28;20077;-75
2023/06/05 09:46:57;;;;;;;4.03;2.40;;;;;;;26.02;45.89;99480.91;4998815;28;20034;-75
2023/06/05 09:49:29;;;;;;;5.18;2.50;;;;;;;25.26;45.91;99267.72;4984856;28;20026;-75
2023/06/05 09:51:56;;;;;;;5.75;2.78;;;;;;;25.84;47.15;99717.59;4991063;28;20034;-75
2023/06/05 09:54:22;;;;;;;6.05;3.20;;;;;;;25.89;48.29;99893.41;4995431;28;20029;-75
2023/06/05 09:56:49;;;;;;;6.07;2.83;;;;;;;25.87;49.12;100002.22;4990236;28;20118;-74
2023/06/05 09:59:20;;;;;;;6.57;3.40;;;;;;;25.88;48.71;99890.94;4979186;28;20021;-75
2023/06/05 10:01:47;;;;;;;6.93;2.88;;;;;;;26.13;47.50;99783.25;4989964;28;20439;-74
2023/06/05 10:04:15;;;;;;;10.05;3.90;;;;;;;26.18;48.61;99979.34;4989720;28;20104;-75
2023/06/05 10:06:42;;;;;;;7.78;3.33;;;;;;;26.04;48.91;100029.19;4994417;28;20230;-75
2023/06/05 10:09:09;;;;;;;7.32;3.13;;;;;;;26.40;49.06;100118.44;4991359;28;20037;-75
2023/06/05 10:11:35;;;;;;;11.35;4.03;;;;;;;25.54;49.53;99896.31;4972379;28;20045;-74
2023/06/05 10:14:02;;;;;;;8.20;3.30;;;;;;;25.66;50.52;100173.69;5001690;28;20025;-74
2023/06/05 10:16:28;;;;;;;8.18;3.33;;;;;;;26.77;49.30;100300.59;4950445;28;20038;-74
2023/06/05 10:18:56;;;;;;;8.15;3.90;;;;;;;26.02;48.98;99897.38;4994608;28;20073;-74
2023/06/05 10:21:23;;;;;;;5.25;3.83;;;;;;;26.14;47.76;99822.34;4987522;28;20502;-74
2023/06/05 10:23:52;;;;;;;5.63;3.08;;;;;;;26.47;47.77;99960.22;4989671;28;20032;-74
2023/06/05 10:26:51;;;;;;;5.97;3.35;;;;;;;26.51;48.38;100052.41;4989904;28;20080;-74
2023/06/05 10:29:36;;;;;;;6.13;3.25;;;;;;;26.16;48.55;99965.13;4990020;28;20471;-74
2023/06/05 10:32:07;;;;;;;8.52;3.15;;;;;;;26.86;48.09;100093.50;5001614;28;20073;-74
2023/06/05 10:35:16;;;;;;;6.95;3.08;;;;;;;26.32;48.08;99920.94;4972254;28;20049;-75
2023/06/05 10:38:03;;;;;;;7.20;3.50;;;;;;;26.41;47.06;99822.63;4926683;29;20654;-75
2023/06/05 10:40:29;;;;;;;3.95;2.72;;;;;;;26.75;46.88;99903.84;4925037;29;20051;-75
2023/06/05 10:43:15;;;;;;;;;;;;;;;25.29;47.44;99452.88;4926732;29;20055;-75
2023/06/05 10:45:40;;;;;;;6.63;3.03;;;;;;;26.57;47.08;99907.31;4926240;29;19925;-74
2023/06/05 10:48:06;;;;;;;7.22;3.00;;;;;;;26.92;46.12;99889.69;4913189;29;20519;-74
2023/06/05 10:50:31;;;;;;;4.75;2.88;;;;;;;27.07;46.73;99979.09;4926124;29;20253;-74
2023/06/05 10:52:57;;;;;;;7.27;2.93;;;;;;;27.10;46.15;99982.06;4909777;29;20432;-75
2023/06/05 10:55:24;;;;;;;5.93;2.65;;;;;;;26.66;44.07;99339.75;4925962;29;20311;-74
2023/06/05 10:57:55;;;;;;;7.90;2.88;;;;;;;27.53;45.09;99860.69;4914750;29;20043;-74
2023/06/05 11:00:21;;;;;;;7.90;2.75;;;;;;;27.94;44.06;99868.31;4926109;29;20401;-74
2023/06/05 11:02:47;;;;;;;;;;;;;;;27.74;43.71;99707.63;4910076;29;20118;-74
2023/06/05 11:05:13;;;;;;;5.32;2.47;;;;;;;26.87;44.73;99613.97;4925889;29;20401;-74
2023/06/05 11:07:39;;;;;;;7.78;2.63;;;;;;;27.16;45.25;99752.69;4926206;29;20075;-74
2023/06/05 11:10:16;;;;;;;5.72;2.75;;;;;;;27.26;44.53;99727.91;4925412;29;20039;-74
2023/06/05 11:12:41;;;;;;;4.80;2.67;;;;;;;27.64;43.95;99710.56;4989560;28;20057;-74
2023/06/05 11:15:11;;;;;;;8.53;2.97;;;;;;;28.30;42.17;99711.25;5001484;28;20081;-74
2023/06/05 11:17:44;;;;;;;3.65;2.65;;;;;;;27.71;41.69;99382.78;4975438;28;20201;-74
2023/06/05 11:20:28;;;;;;;5.10;2.80;;;;;;;26.64;42.82;99130.44;4993793;28;20077;-75
2023/06/05 11:22:53;;;;;;;4.25;2.50;;;;;;;26.60;44.23;99430.47;4995356;28;20376;-74